Norwegian Sun — C6RN3 — position and weather

sailwx.info

Track history (hours):
 
Tides and Currents Weather Stations Pressure Air Temp Water Temp Dewpoint Dewpoint Depression Visibility Wind Speed Wind Dir Waves Ship Positions

Norwegian Sun

Operator: Norwegian Cruise Line

Last reported at 2017-Nov-24 21:03 UTC. Time now 2017-Nov-24 22:23 UTC.
Position N 17°17' W 062°43'.

Type: Passenger vessel. MMSI: 311109000.

Date/timePositionNaut miles runAvg speedWind from/ knotsBaromVisibWave heightAir tempDewpointWater temp
2017-Nov-24 21:03N 17°17' W 062°43'0 0.0
2017-Nov-24 20:45N 17°17' W 062°43'0 0.0
2017-Nov-24 20:27N 17°17' W 062°43'0 0.0
2017-Nov-24 19:51N 17°17' W 062°43'0 0.0
2017-Nov-24 19:27N 17°17' W 062°43'31 2.3
2017-Nov-24 06:00N 16°48' W 062°54'13 6.5 090 / 121013.010.8 26.024.628.0
2017-Nov-24 04:00N 16°42' W 062°42'8 8.3 120 / 201014.010.8 27.025.729.0
2017-Nov-24 03:00N 16°48' W 062°36'618.5 110 / 151014.010.8 27.025.729.0
2017-Nov-24 02:39N 16°54' W 062°35'5 8.0
2017-Nov-24 02:02N 16°57' W 062°30'6159.7
2017-Nov-24 02:00N 16°54' W 062°24'521.0 100 / 191014.010.8 27.025.729.0
2017-Nov-24 01:44N 16°58' W 062°28'2 9.3
2017-Nov-24 01:30N 16°59' W 062°26'5 9.1
2017-Nov-24 01:00N 17°02' W 062°22'4 8.3
2017-Nov-24 00:30N 17°03' W 062°18'4 8.3
2017-Nov-24 00:00N 17°05' W 062°14'4 8.3
2017-Nov-23 23:30N 17°07' W 062°10'4 8.2
2017-Nov-23 23:00N 17°09' W 062°06'4 8.2
2017-Nov-23 22:30N 17°11' W 062°02'4 8.2
2017-Nov-23 22:00N 17°10' W 061°58'4 8.3
2017-Nov-23 21:30N 17°08' W 061°54'3 6.2
2017-Nov-23 21:00N 17°07' W 061°51'0 0.4
2017-Nov-23 20:28N 17°07' W 061°51'0 0.0
2017-Nov-23 19:58N 17°07' W 061°51'0 0.0
2017-Nov-23 19:28N 17°07' W 061°51'0 0.0
2017-Nov-23 18:58N 17°07' W 061°51'0 0.0
2017-Nov-23 18:28N 17°07' W 061°51'0 0.0
2017-Nov-23 17:58N 17°07' W 061°51'0 0.0
2017-Nov-23 17:28N 17°07' W 061°51'0 0.0
2017-Nov-23 16:58N 17°07' W 061°51'0 0.0
2017-Nov-23 16:28N 17°07' W 061°51'0 0.0
2017-Nov-23 15:58N 17°07' W 061°51'0 0.0
2017-Nov-23 15:28N 17°07' W 061°51'3 6.5
2017-Nov-23 15:00N 17°06' W 061°48'395.5 070 / 51014.010.8 29.026.330.0
2017-Nov-23 14:58N 17°07' W 061°51'0 0.0
2017-Nov-23 14:25N 17°07' W 061°51'3 7.3
2017-Nov-23 14:00N 17°06' W 061°48'396.3 110 / 101012.010.8 27.025.728.0
2017-Nov-23 13:58N 17°07' W 061°51'0 0.0
2017-Nov-23 13:28N 17°07' W 061°51'0 0.0
2017-Nov-23 12:58N 17°07' W 061°51'0 0.0
2017-Nov-23 12:28N 17°07' W 061°51'0 0.0
2017-Nov-23 11:58N 17°07' W 061°51'0 0.3
2017-Nov-23 11:30N 17°07' W 061°51'3 7.0
2017-Nov-23 11:00N 17°09' W 061°54'510.4
2017-Nov-23 10:30N 17°11' W 061°59'510.5
2017-Nov-23 10:00N 17°09' W 062°05'713.1
2017-Nov-23 09:30N 17°06' W 062°11'612.9
2017-Nov-23 09:00N 17°04' W 062°17'612.2
2017-Nov-23 08:30N 17°01' W 062°23'611.9
2017-Nov-23 08:01N 16°58' W 062°28'6321.1
2017-Nov-23 08:00N 16°54' W 062°24'918.8 050 / 141013.0 5.4 26.024.629.0
2017-Nov-23 07:30N 16°55' W 062°34'713.6
2017-Nov-23 07:00N 16°48' W 062°36'5012.6 040 / 141013.0 5.4 26.024.628.0
2017-Nov-23 03:00N 16°18' W 063°18'8 8.3 030 / 101014.010.8 27.024.328.0
2017-Nov-23 02:00N 16°12' W 063°24'1114.8 030 / 101015.010.8 27.025.729.0
2017-Nov-23 01:14N 16°09' W 063°35'5316.2
2017-Nov-22 22:00N 15°36' W 064°18'9619.3 060 / 171012.0 5.4 27.025.731.0
2017-Nov-22 17:00N 14°36' W 065°36'   080 / 251014.010.8 28.026.730.0
2017-Nov-18 00:11N 25°26' W 079°54'317.8
2017-Nov-18 00:01N 25°29' W 079°54'918.1
2017-Nov-17 23:30N 25°38' W 079°58'918.6
2017-Nov-17 23:00N 25°45' W 080°04'5 9.4
2017-Nov-17 22:30N 25°46' W 080°09'1 1.2
2017-Nov-17 22:01N 25°46' W 080°10'0 0.0
2017-Nov-17 21:24N 25°46' W 080°10'0 0.0
2017-Nov-17 20:57N 25°46' W 080°10'0 0.0
2017-Nov-17 20:27N 25°46' W 080°10'0 0.0
2017-Nov-17 20:00N 25°46' W 080°10'0 0.0
2017-Nov-17 19:24N 25°46' W 080°10'0 0.0
2017-Nov-17 19:00N 25°46' W 080°10'0 0.0
2017-Nov-17 18:30N 25°46' W 080°10'0 0.0
2017-Nov-17 17:57N 25°46' W 080°10'0 0.0
2017-Nov-17 17:27N 25°46' W 080°10'0 0.0
2017-Nov-17 16:57N 25°46' W 080°10'0 0.0
2017-Nov-17 16:30N 25°46' W 080°10'0 0.0
2017-Nov-17 15:57N 25°46' W 080°10'0 0.0
2017-Nov-17 15:30N 25°46' W 080°10'0 0.0
2017-Nov-17 15:00N 25°46' W 080°10'0 0.0
2017-Nov-17 14:30N 25°46' W 080°10'0 0.0
2017-Nov-17 14:00N 25°46' W 080°10'0 0.0
2017-Nov-17 13:30N 25°46' W 080°10'0 0.0
2017-Nov-17 13:00N 25°46' W 080°10'0 0.0
2017-Nov-17 12:30N 25°46' W 080°10'0 0.0
2017-Nov-17 12:00N 25°46' W 080°10'0 0.0
2017-Nov-17 11:30N 25°46' W 080°10'0 0.0
2017-Nov-17 11:00N 25°46' W 080°10'1 1.2
2017-Nov-17 10:30N 25°47' W 080°10'1 1.3
2017-Nov-17 10:00N 25°47' W 080°10'5 9.7
2017-Nov-17 09:31N 25°46' W 080°04'611.2
2017-Nov-17 09:00N 25°42' W 079°60'713.5
2017-Nov-17 08:31N 25°36' W 079°58'816.1
2017-Nov-17 08:00N 25°28' W 079°54'816.6
2017-Nov-17 07:30N 25°21' W 079°51'40818.1
2017-Nov-16 08:59N 20°41' W 074°29'1019.3
2017-Nov-16 08:29N 20°36' W 074°20'  
Track history (hours):
 
Tides and Currents Weather Stations Pressure Air Temp Water Temp Dewpoint Dewpoint Depression Visibility Wind Speed Wind Dir Waves Ship Positions

Norwegian Sun

Operator: Norwegian Cruise Line

Last reported at 2017-Nov-24 21:03 UTC. Time now 2017-Nov-24 22:23 UTC.
Position N 17°17' W 062°43'.

Type: Passenger vessel. MMSI: 311109000.

Date/timePositionNaut miles runAvg speedWind from/ knotsBaromVisibWave heightAir tempDewpointWater temp
2017-Nov-24 21:03N 17°17' W 062°43'0 0.0
2017-Nov-24 20:45N 17°17' W 062°43'0 0.0
2017-Nov-24 20:27N 17°17' W 062°43'0 0.0
2017-Nov-24 19:51N 17°17' W 062°43'0 0.0
2017-Nov-24 19:27N 17°17' W 062°43'31 2.3
2017-Nov-24 06:00N 16°48' W 062°54'13 6.5 090 / 121013.010.8 26.024.628.0
2017-Nov-24 04:00N 16°42' W 062°42'8 8.3 120 / 201014.010.8 27.025.729.0
2017-Nov-24 03:00N 16°48' W 062°36'618.5 110 / 151014.010.8 27.025.729.0
2017-Nov-24 02:39N 16°54' W 062°35'5 8.0
2017-Nov-24 02:02N 16°57' W 062°30'6159.7
2017-Nov-24 02:00N 16°54' W 062°24'521.0 100 / 191014.010.8 27.025.729.0
2017-Nov-24 01:44N 16°58' W 062°28'2 9.3
2017-Nov-24 01:30N 16°59' W 062°26'5 9.1
2017-Nov-24 01:00N 17°02' W 062°22'4 8.3
2017-Nov-24 00:30N 17°03' W 062°18'4 8.3
2017-Nov-24 00:00N 17°05' W 062°14'4 8.3
2017-Nov-23 23:30N 17°07' W 062°10'4 8.2
2017-Nov-23 23:00N 17°09' W 062°06'4 8.2
2017-Nov-23 22:30N 17°11' W 062°02'4 8.2
2017-Nov-23 22:00N 17°10' W 061°58'4 8.3
2017-Nov-23 21:30N 17°08' W 061°54'3 6.2
2017-Nov-23 21:00N 17°07' W 061°51'0 0.4
2017-Nov-23 20:28N 17°07' W 061°51'0 0.0
2017-Nov-23 19:58N 17°07' W 061°51'0 0.0
2017-Nov-23 19:28N 17°07' W 061°51'0 0.0
2017-Nov-23 18:58N 17°07' W 061°51'0 0.0
2017-Nov-23 18:28N 17°07' W 061°51'0 0.0
2017-Nov-23 17:58N 17°07' W 061°51'0 0.0
2017-Nov-23 17:28N 17°07' W 061°51'0 0.0
2017-Nov-23 16:58N 17°07' W 061°51'0 0.0
2017-Nov-23 16:28N 17°07' W 061°51'0 0.0
2017-Nov-23 15:58N 17°07' W 061°51'0 0.0
2017-Nov-23 15:28N 17°07' W 061°51'3 6.5
2017-Nov-23 15:00N 17°06' W 061°48'395.5 070 / 51014.010.8 29.026.330.0
2017-Nov-23 14:58N 17°07' W 061°51'0 0.0
2017-Nov-23 14:25N 17°07' W 061°51'3 7.3
2017-Nov-23 14:00N 17°06' W 061°48'396.3 110 / 101012.010.8 27.025.728.0
2017-Nov-23 13:58N 17°07' W 061°51'0 0.0
2017-Nov-23 13:28N 17°07' W 061°51'0 0.0
2017-Nov-23 12:58N 17°07' W 061°51'0 0.0
2017-Nov-23 12:28N 17°07' W 061°51'0 0.0
2017-Nov-23 11:58N 17°07' W 061°51'0 0.3
2017-Nov-23 11:30N 17°07' W 061°51'3 7.0
2017-Nov-23 11:00N 17°09' W 061°54'510.4
2017-Nov-23 10:30N 17°11' W 061°59'510.5
2017-Nov-23 10:00N 17°09' W 062°05'713.1
2017-Nov-23 09:30N 17°06' W 062°11'612.9
2017-Nov-23 09:00N 17°04' W 062°17'612.2
2017-Nov-23 08:30N 17°01' W 062°23'611.9
2017-Nov-23 08:01N 16°58' W 062°28'6321.1
2017-Nov-23 08:00N 16°54' W 062°24'918.8 050 / 141013.0 5.4 26.024.629.0
2017-Nov-23 07:30N 16°55' W 062°34'713.6
2017-Nov-23 07:00N 16°48' W 062°36'5012.6 040 / 141013.0 5.4 26.024.628.0
2017-Nov-23 03:00N 16°18' W 063°18'8 8.3 030 / 101014.010.8 27.024.328.0
2017-Nov-23 02:00N 16°12' W 063°24'1114.8 030 / 101015.010.8 27.025.729.0
2017-Nov-23 01:14N 16°09' W 063°35'5316.2
2017-Nov-22 22:00N 15°36' W 064°18'9619.3 060 / 171012.0 5.4 27.025.731.0
2017-Nov-22 17:00N 14°36' W 065°36'   080 / 251014.010.8 28.026.730.0
2017-Nov-18 00:11N 25°26' W 079°54'317.8
2017-Nov-18 00:01N 25°29' W 079°54'918.1
2017-Nov-17 23:30N 25°38' W 079°58'918.6
2017-Nov-17 23:00N 25°45' W 080°04'5 9.4
2017-Nov-17 22:30N 25°46' W 080°09'1 1.2
2017-Nov-17 22:01N 25°46' W 080°10'0 0.0
2017-Nov-17 21:24N 25°46' W 080°10'0 0.0
2017-Nov-17 20:57N 25°46' W 080°10'0 0.0
2017-Nov-17 20:27N 25°46' W 080°10'0 0.0
2017-Nov-17 20:00N 25°46' W 080°10'0 0.0
2017-Nov-17 19:24N 25°46' W 080°10'0 0.0
2017-Nov-17 19:00N 25°46' W 080°10'0 0.0
2017-Nov-17 18:30N 25°46' W 080°10'0 0.0
2017-Nov-17 17:57N 25°46' W 080°10'0 0.0
2017-Nov-17 17:27N 25°46' W 080°10'0 0.0
2017-Nov-17 16:57N 25°46' W 080°10'0 0.0
2017-Nov-17 16:30N 25°46' W 080°10'0 0.0
2017-Nov-17 15:57N 25°46' W 080°10'0 0.0
2017-Nov-17 15:30N 25°46' W 080°10'0 0.0
2017-Nov-17 15:00N 25°46' W 080°10'0 0.0
2017-Nov-17 14:30N 25°46' W 080°10'0 0.0
2017-Nov-17 14:00N 25°46' W 080°10'0 0.0
2017-Nov-17 13:30N 25°46' W 080°10'0 0.0
2017-Nov-17 13:00N 25°46' W 080°10'0 0.0
2017-Nov-17 12:30N 25°46' W 080°10'0 0.0
2017-Nov-17 12:00N 25°46' W 080°10'0 0.0
2017-Nov-17 11:30N 25°46' W 080°10'0 0.0
2017-Nov-17 11:00N 25°46' W 080°10'1 1.2
2017-Nov-17 10:30N 25°47' W 080°10'1 1.3
2017-Nov-17 10:00N 25°47' W 080°10'5 9.7
2017-Nov-17 09:31N 25°46' W 080°04'611.2
2017-Nov-17 09:00N 25°42' W 079°60'713.5
2017-Nov-17 08:31N 25°36' W 079°58'816.1
2017-Nov-17 08:00N 25°28' W 079°54'816.6
2017-Nov-17 07:30N 25°21' W 079°51'40818.1
2017-Nov-16 08:59N 20°41' W 074°29'1019.3
2017-Nov-16 08:29N 20°36' W 074°20'  

Dump ship's entire track history